sensor_id;sensor_type;location;lat;lon;timestamp;P1;durP1;ratioP1;P2;durP2;ratioP2
54372;SDS011;40271;48.798;10.178;2022-08-19T00:01:10;15.43;;;9.75;;
54372;SDS011;40271;48.798;10.178;2022-08-19T00:03:36;13.70;;;9.25;;
54372;SDS011;40271;48.798;10.178;2022-08-19T00:06:02;13.95;;;9.80;;
54372;SDS011;40271;48.798;10.178;2022-08-19T00:08:28;14.70;;;9.88;;
54372;SDS011;40271;48.798;10.178;2022-08-19T00:10:54;15.00;;;10.75;;
54372;SDS011;40271;48.798;10.178;2022-08-19T00:13:20;14.27;;;10.43;;
54372;SDS011;40271;48.798;10.178;2022-08-19T00:15:46;15.05;;;10.77;;
54372;SDS011;40271;48.798;10.178;2022-08-19T00:18:12;15.93;;;10.13;;
54372;SDS011;40271;48.798;10.178;2022-08-19T00:20:38;15.90;;;10.60;;
54372;SDS011;40271;48.798;10.178;2022-08-19T00:23:05;15.60;;;10.50;;
54372;SDS011;40271;48.798;10.178;2022-08-19T00:25:31;15.90;;;10.48;;
54372;SDS011;40271;48.798;10.178;2022-08-19T00:27:58;16.45;;;11.00;;
54372;SDS011;40271;48.798;10.178;2022-08-19T00:30:24;16.40;;;10.60;;
54372;SDS011;40271;48.798;10.178;2022-08-19T00:32:52;16.33;;;11.10;;
54372;SDS011;40271;48.798;10.178;2022-08-19T00:35:20;16.65;;;10.65;;
54372;SDS011;40271;48.798;10.178;2022-08-19T00:37:47;18.48;;;11.50;;
54372;SDS011;40271;48.798;10.178;2022-08-19T00:40:13;18.30;;;11.73;;
54372;SDS011;40271;48.798;10.178;2022-08-19T00:42:39;18.40;;;11.77;;
54372;SDS011;40271;48.798;10.178;2022-08-19T00:45:11;19.17;;;12.38;;
54372;SDS011;40271;48.798;10.178;2022-08-19T00:47:38;18.95;;;11.95;;
54372;SDS011;40271;48.798;10.178;2022-08-19T00:50:04;19.48;;;11.82;;
54372;SDS011;40271;48.798;10.178;2022-08-19T00:52:32;17.65;;;11.35;;
54372;SDS011;40271;48.798;10.178;2022-08-19T00:54:59;18.35;;;11.85;;
54372;SDS011;40271;48.798;10.178;2022-08-19T00:57:46;18.90;;;12.07;;
54372;SDS011;40271;48.798;10.178;2022-08-19T01:00:14;20.30;;;12.80;;
54372;SDS011;40271;48.798;10.178;2022-08-19T01:02:41;20.17;;;12.02;;
54372;SDS011;40271;48.798;10.178;2022-08-19T01:05:08;20.83;;;12.73;;
54372;SDS011;40271;48.798;10.178;2022-08-19T01:07:35;24.05;;;13.77;;
54372;SDS011;40271;48.798;10.178;2022-08-19T01:10:03;22.85;;;13.60;;
54372;SDS011;40271;48.798;10.178;2022-08-19T01:12:30;22.88;;;14.27;;
54372;SDS011;40271;48.798;10.178;2022-08-19T01:14:56;22.48;;;13.95;;
54372;SDS011;40271;48.798;10.178;2022-08-19T01:17:22;24.48;;;14.32;;
54372;SDS011;40271;48.798;10.178;2022-08-19T01:19:48;23.75;;;13.85;;
54372;SDS011;40271;48.798;10.178;2022-08-19T01:24:50;23.48;;;14.30;;
54372;SDS011;40271;48.798;10.178;2022-08-19T01:27:16;24.35;;;14.48;;
54372;SDS011;40271;48.798;10.178;2022-08-19T01:29:43;24.60;;;14.75;;
54372;SDS011;40271;48.798;10.178;2022-08-19T01:32:11;27.02;;;14.63;;
54372;SDS011;40271;48.798;10.178;2022-08-19T01:34:37;25.17;;;14.50;;
54372;SDS011;40271;48.798;10.178;2022-08-19T01:37:10;25.58;;;13.75;;
54372;SDS011;40271;48.798;10.178;2022-08-19T01:39:37;24.05;;;13.70;;
54372;SDS011;40271;48.798;10.178;2022-08-19T01:42:03;23.20;;;14.27;;
54372;SDS011;40271;48.798;10.178;2022-08-19T01:44:30;22.55;;;13.65;;
54372;SDS011;40271;48.798;10.178;2022-08-19T01:46:56;22.63;;;14.35;;
54372;SDS011;40271;48.798;10.178;2022-08-19T01:49:23;24.77;;;14.93;;
54372;SDS011;40271;48.798;10.178;2022-08-19T01:51:50;23.25;;;14.13;;
54372;SDS011;40271;48.798;10.178;2022-08-19T01:54:16;24.10;;;14.07;;
54372;SDS011;40271;48.798;10.178;2022-08-19T01:56:43;24.23;;;13.85;;
54372;SDS011;40271;48.798;10.178;2022-08-19T01:59:13;23.40;;;13.65;;
54372;SDS011;40271;48.798;10.178;2022-08-19T02:01:40;20.63;;;13.02;;
54372;SDS011;40271;48.798;10.178;2022-08-19T02:04:06;24.70;;;14.07;;
54372;SDS011;40271;48.798;10.178;2022-08-19T02:06:33;23.35;;;13.73;;
54372;SDS011;40271;48.798;10.178;2022-08-19T02:08:59;21.55;;;13.48;;
54372;SDS011;40271;48.798;10.178;2022-08-19T02:11:31;22.60;;;13.13;;
54372;SDS011;40271;48.798;10.178;2022-08-19T02:13:58;23.77;;;14.23;;
54372;SDS011;40271;48.798;10.178;2022-08-19T02:16:25;21.15;;;12.95;;
54372;SDS011;40271;48.798;10.178;2022-08-19T02:18:51;23.55;;;13.63;;
54372;SDS011;40271;48.798;10.178;2022-08-19T02:21:18;23.08;;;13.88;;
54372;SDS011;40271;48.798;10.178;2022-08-19T02:23:44;22.13;;;13.77;;
54372;SDS011;40271;48.798;10.178;2022-08-19T02:26:11;21.38;;;12.40;;
54372;SDS011;40271;48.798;10.178;2022-08-19T02:28:37;20.33;;;13.30;;
54372;SDS011;40271;48.798;10.178;2022-08-19T02:31:08;23.85;;;13.43;;
54372;SDS011;40271;48.798;10.178;2022-08-19T02:33:34;22.25;;;13.30;;
54372;SDS011;40271;48.798;10.178;2022-08-19T02:36:02;23.30;;;13.38;;
54372;SDS011;40271;48.798;10.178;2022-08-19T02:38:28;22.02;;;13.20;;
54372;SDS011;40271;48.798;10.178;2022-08-19T02:41:05;21.50;;;13.77;;
54372;SDS011;40271;48.798;10.178;2022-08-19T02:43:32;25.20;;;14.90;;
54372;SDS011;40271;48.798;10.178;2022-08-19T02:46:01;20.40;;;13.60;;
54372;SDS011;40271;48.798;10.178;2022-08-19T02:48:28;22.42;;;12.88;;
54372;SDS011;40271;48.798;10.178;2022-08-19T02:50:54;24.02;;;14.25;;
54372;SDS011;40271;48.798;10.178;2022-08-19T02:53:21;24.15;;;14.35;;
54372;SDS011;40271;48.798;10.178;2022-08-19T02:55:48;22.30;;;13.65;;
54372;SDS011;40271;48.798;10.178;2022-08-19T02:58:14;24.67;;;14.43;;
54372;SDS011;40271;48.798;10.178;2022-08-19T03:00:42;23.75;;;13.55;;
54372;SDS011;40271;48.798;10.178;2022-08-19T03:03:08;24.80;;;13.32;;
54372;SDS011;40271;48.798;10.178;2022-08-19T03:05:34;23.60;;;14.23;;
54372;SDS011;40271;48.798;10.178;2022-08-19T03:08:00;22.33;;;13.77;;
54372;SDS011;40271;48.798;10.178;2022-08-19T03:10:26;21.90;;;13.10;;
54372;SDS011;40271;48.798;10.178;2022-08-19T03:12:52;23.05;;;14.32;;
54372;SDS011;40271;48.798;10.178;2022-08-19T03:15:18;21.40;;;13.20;;
54372;SDS011;40271;48.798;10.178;2022-08-19T03:17:44;22.10;;;13.68;;
54372;SDS011;40271;48.798;10.178;2022-08-19T03:20:10;23.10;;;13.77;;
54372;SDS011;40271;48.798;10.178;2022-08-19T03:22:36;21.52;;;13.75;;
54372;SDS011;40271;48.798;10.178;2022-08-19T03:25:03;24.02;;;14.13;;
54372;SDS011;40271;48.798;10.178;2022-08-19T03:27:29;23.23;;;14.80;;
54372;SDS011;40271;48.798;10.178;2022-08-19T03:29:55;25.02;;;14.43;;
54372;SDS011;40271;48.798;10.178;2022-08-19T03:32:21;23.55;;;14.20;;
54372;SDS011;40271;48.798;10.178;2022-08-19T03:34:48;24.17;;;15.05;;
54372;SDS011;40271;48.798;10.178;2022-08-19T03:37:15;24.35;;;14.73;;
54372;SDS011;40271;48.798;10.178;2022-08-19T03:39:41;24.90;;;14.82;;
54372;SDS011;40271;48.798;10.178;2022-08-19T03:42:08;28.95;;;15.48;;
54372;SDS011;40271;48.798;10.178;2022-08-19T03:44:34;32.20;;;16.52;;
54372;SDS011;40271;48.798;10.178;2022-08-19T03:47:02;26.98;;;15.45;;
54372;SDS011;40271;48.798;10.178;2022-08-19T03:49:29;27.10;;;16.27;;
54372;SDS011;40271;48.798;10.178;2022-08-19T03:51:56;26.42;;;15.77;;
54372;SDS011;40271;48.798;10.178;2022-08-19T03:54:23;24.92;;;14.85;;
54372;SDS011;40271;48.798;10.178;2022-08-19T03:56:51;25.85;;;15.52;;
54372;SDS011;40271;48.798;10.178;2022-08-19T03:59:28;25.30;;;14.70;;
54372;SDS011;40271;48.798;10.178;2022-08-19T04:01:56;24.55;;;15.32;;
54372;SDS011;40271;48.798;10.178;2022-08-19T04:04:22;29.00;;;16.63;;
54372;SDS011;40271;48.798;10.178;2022-08-19T04:06:49;29.70;;;17.23;;
54372;SDS011;40271;48.798;10.178;2022-08-19T04:09:16;28.85;;;16.50;;
54372;SDS011;40271;48.798;10.178;2022-08-19T04:11:44;28.55;;;16.98;;
54372;SDS011;40271;48.798;10.178;2022-08-19T04:14:12;28.67;;;16.33;;
54372;SDS011;40271;48.798;10.178;2022-08-19T04:16:39;26.33;;;15.65;;
54372;SDS011;40271;48.798;10.178;2022-08-19T04:19:05;27.13;;;16.77;;
54372;SDS011;40271;48.798;10.178;2022-08-19T04:21:32;27.70;;;16.35;;
54372;SDS011;40271;48.798;10.178;2022-08-19T04:23:58;29.08;;;16.58;;
54372;SDS011;40271;48.798;10.178;2022-08-19T04:26:26;28.35;;;16.45;;
54372;SDS011;40271;48.798;10.178;2022-08-19T04:28:53;29.88;;;17.20;;
54372;SDS011;40271;48.798;10.178;2022-08-19T04:31:20;30.40;;;17.63;;
54372;SDS011;40271;48.798;10.178;2022-08-19T04:33:46;28.67;;;17.15;;
54372;SDS011;40271;48.798;10.178;2022-08-19T04:36:19;31.40;;;17.23;;
54372;SDS011;40271;48.798;10.178;2022-08-19T04:38:47;31.27;;;17.92;;
54372;SDS011;40271;48.798;10.178;2022-08-19T04:41:13;33.47;;;19.20;;
54372;SDS011;40271;48.798;10.178;2022-08-19T04:43:58;31.23;;;17.98;;
54372;SDS011;40271;48.798;10.178;2022-08-19T04:46:24;30.95;;;17.10;;
54372;SDS011;40271;48.798;10.178;2022-08-19T04:48:50;32.42;;;17.75;;
54372;SDS011;40271;48.798;10.178;2022-08-19T04:51:16;32.53;;;18.25;;
54372;SDS011;40271;48.798;10.178;2022-08-19T04:53:42;33.70;;;18.13;;
54372;SDS011;40271;48.798;10.178;2022-08-19T04:56:13;32.40;;;17.30;;
54372;SDS011;40271;48.798;10.178;2022-08-19T04:58:40;32.00;;;18.33;;
54372;SDS011;40271;48.798;10.178;2022-08-19T05:01:07;29.35;;;16.55;;
54372;SDS011;40271;48.798;10.178;2022-08-19T05:03:34;36.22;;;17.15;;
54372;SDS011;40271;48.798;10.178;2022-08-19T05:06:06;32.28;;;17.05;;
54372;SDS011;40271;48.798;10.178;2022-08-19T05:08:33;31.40;;;16.42;;
54372;SDS011;40271;48.798;10.178;2022-08-19T05:11:01;33.55;;;17.25;;
54372;SDS011;40271;48.798;10.178;2022-08-19T05:13:27;31.83;;;17.90;;
54372;SDS011;40271;48.798;10.178;2022-08-19T05:15:55;32.00;;;16.42;;
54372;SDS011;40271;48.798;10.178;2022-08-19T05:18:21;29.83;;;16.15;;
54372;SDS011;40271;48.798;10.178;2022-08-19T05:21:13;30.65;;;16.38;;
54372;SDS011;40271;48.798;10.178;2022-08-19T05:23:58;33.15;;;17.70;;
54372;SDS011;40271;48.798;10.178;2022-08-19T05:26:25;29.67;;;16.85;;
54372;SDS011;40271;48.798;10.178;2022-08-19T05:28:54;30.77;;;17.33;;
54372;SDS011;40271;48.798;10.178;2022-08-19T05:31:21;27.67;;;16.55;;
54372;SDS011;40271;48.798;10.178;2022-08-19T05:33:47;29.60;;;16.33;;
54372;SDS011;40271;48.798;10.178;2022-08-19T05:36:13;29.52;;;17.42;;
54372;SDS011;40271;48.798;10.178;2022-08-19T05:38:39;31.50;;;17.02;;
54372;SDS011;40271;48.798;10.178;2022-08-19T05:41:06;29.23;;;16.58;;
54372;SDS011;40271;48.798;10.178;2022-08-19T05:43:33;30.05;;;16.60;;
54372;SDS011;40271;48.798;10.178;2022-08-19T05:45:59;31.50;;;16.80;;
54372;SDS011;40271;48.798;10.178;2022-08-19T05:48:25;35.60;;;18.50;;
54372;SDS011;40271;48.798;10.178;2022-08-19T05:50:51;31.80;;;16.98;;
54372;SDS011;40271;48.798;10.178;2022-08-19T05:53:18;32.97;;;17.48;;
54372;SDS011;40271;48.798;10.178;2022-08-19T05:55:44;31.40;;;17.08;;
54372;SDS011;40271;48.798;10.178;2022-08-19T05:58:10;31.02;;;16.40;;
54372;SDS011;40271;48.798;10.178;2022-08-19T06:00:36;29.27;;;16.23;;
54372;SDS011;40271;48.798;10.178;2022-08-19T06:03:03;34.03;;;17.10;;
54372;SDS011;40271;48.798;10.178;2022-08-19T06:05:30;31.27;;;17.13;;
54372;SDS011;40271;48.798;10.178;2022-08-19T06:07:56;30.23;;;16.23;;
54372;SDS011;40271;48.798;10.178;2022-08-19T06:10:24;28.38;;;16.45;;
54372;SDS011;40271;48.798;10.178;2022-08-19T06:12:51;33.83;;;17.13;;
54372;SDS011;40271;48.798;10.178;2022-08-19T06:15:17;29.92;;;16.77;;
54372;SDS011;40271;48.798;10.178;2022-08-19T06:17:43;40.35;;;17.80;;
54372;SDS011;40271;48.798;10.178;2022-08-19T06:20:10;33.65;;;17.77;;
54372;SDS011;40271;48.798;10.178;2022-08-19T06:22:41;30.55;;;17.60;;
54372;SDS011;40271;48.798;10.178;2022-08-19T06:25:07;31.50;;;17.60;;
54372;SDS011;40271;48.798;10.178;2022-08-19T06:27:36;34.17;;;17.38;;
54372;SDS011;40271;48.798;10.178;2022-08-19T06:30:03;32.38;;;16.65;;
54372;SDS011;40271;48.798;10.178;2022-08-19T06:32:29;32.55;;;17.88;;
54372;SDS011;40271;48.798;10.178;2022-08-19T06:34:56;32.90;;;18.08;;
54372;SDS011;40271;48.798;10.178;2022-08-19T06:37:22;32.75;;;17.70;;
54372;SDS011;40271;48.798;10.178;2022-08-19T06:39:48;32.90;;;18.25;;
54372;SDS011;40271;48.798;10.178;2022-08-19T06:42:14;34.50;;;17.23;;
54372;SDS011;40271;48.798;10.178;2022-08-19T06:44:44;34.55;;;16.58;;
54372;SDS011;40271;48.798;10.178;2022-08-19T06:47:12;30.95;;;17.02;;
54372;SDS011;40271;48.798;10.178;2022-08-19T06:49:39;32.10;;;17.83;;
54372;SDS011;40271;48.798;10.178;2022-08-19T06:52:05;32.83;;;17.45;;
54372;SDS011;40271;48.798;10.178;2022-08-19T06:54:31;37.53;;;18.02;;
54372;SDS011;40271;48.798;10.178;2022-08-19T06:56:58;34.95;;;17.77;;
54372;SDS011;40271;48.798;10.178;2022-08-19T06:59:28;30.98;;;16.70;;
54372;SDS011;40271;48.798;10.178;2022-08-19T07:01:57;32.58;;;17.35;;
54372;SDS011;40271;48.798;10.178;2022-08-19T07:04:25;40.20;;;17.73;;
54372;SDS011;40271;48.798;10.178;2022-08-19T07:06:59;36.50;;;18.38;;
54372;SDS011;40271;48.798;10.178;2022-08-19T07:09:26;35.05;;;18.85;;
54372;SDS011;40271;48.798;10.178;2022-08-19T07:11:52;35.28;;;18.58;;
54372;SDS011;40271;48.798;10.178;2022-08-19T07:14:19;35.33;;;17.60;;
54372;SDS011;40271;48.798;10.178;2022-08-19T07:16:46;35.00;;;18.13;;
54372;SDS011;40271;48.798;10.178;2022-08-19T07:19:13;33.80;;;17.42;;
54372;SDS011;40271;48.798;10.178;2022-08-19T07:21:39;35.67;;;18.60;;
54372;SDS011;40271;48.798;10.178;2022-08-19T07:24:06;35.92;;;18.48;;
54372;SDS011;40271;48.798;10.178;2022-08-19T07:26:35;32.63;;;18.10;;
54372;SDS011;40271;48.798;10.178;2022-08-19T07:29:03;35.13;;;18.27;;
54372;SDS011;40271;48.798;10.178;2022-08-19T07:31:30;34.33;;;18.70;;
54372;SDS011;40271;48.798;10.178;2022-08-19T07:34:01;39.20;;;18.50;;
54372;SDS011;40271;48.798;10.178;2022-08-19T07:36:28;35.65;;;18.58;;
54372;SDS011;40271;48.798;10.178;2022-08-19T07:38:56;35.40;;;17.90;;
54372;SDS011;40271;48.798;10.178;2022-08-19T07:41:23;36.50;;;19.63;;
54372;SDS011;40271;48.798;10.178;2022-08-19T07:43:50;35.83;;;18.10;;
54372;SDS011;40271;48.798;10.178;2022-08-19T07:46:16;34.92;;;17.85;;
54372;SDS011;40271;48.798;10.178;2022-08-19T07:48:45;32.28;;;18.67;;
54372;SDS011;40271;48.798;10.178;2022-08-19T07:51:14;36.92;;;19.48;;
54372;SDS011;40271;48.798;10.178;2022-08-19T07:53:41;34.75;;;17.98;;
54372;SDS011;40271;48.798;10.178;2022-08-19T07:56:09;38.13;;;18.58;;
54372;SDS011;40271;48.798;10.178;2022-08-19T07:58:37;38.65;;;18.38;;
54372;SDS011;40271;48.798;10.178;2022-08-19T08:01:04;33.03;;;17.55;;
54372;SDS011;40271;48.798;10.178;2022-08-19T08:03:30;39.95;;;20.08;;
54372;SDS011;40271;48.798;10.178;2022-08-19T08:06:15;40.60;;;20.42;;
54372;SDS011;40271;48.798;10.178;2022-08-19T08:09:01;40.38;;;19.80;;
54372;SDS011;40271;48.798;10.178;2022-08-19T08:11:37;37.97;;;19.00;;
54372;SDS011;40271;48.798;10.178;2022-08-19T08:14:03;34.92;;;18.67;;
54372;SDS011;40271;48.798;10.178;2022-08-19T08:16:30;39.60;;;18.80;;
54372;SDS011;40271;48.798;10.178;2022-08-19T08:18:57;39.05;;;20.23;;
54372;SDS011;40271;48.798;10.178;2022-08-19T08:21:23;37.20;;;19.27;;
54372;SDS011;40271;48.798;10.178;2022-08-19T08:23:49;39.85;;;19.55;;
54372;SDS011;40271;48.798;10.178;2022-08-19T08:28:46;34.83;;;17.95;;
54372;SDS011;40271;48.798;10.178;2022-08-19T08:31:13;34.08;;;17.92;;
54372;SDS011;40271;48.798;10.178;2022-08-19T08:33:39;40.78;;;18.92;;
54372;SDS011;40271;48.798;10.178;2022-08-19T08:36:07;33.85;;;17.83;;
54372;SDS011;40271;48.798;10.178;2022-08-19T08:38:34;36.65;;;18.77;;
54372;SDS011;40271;48.798;10.178;2022-08-19T08:41:01;34.97;;;18.42;;
54372;SDS011;40271;48.798;10.178;2022-08-19T08:43:35;39.45;;;19.17;;
54372;SDS011;40271;48.798;10.178;2022-08-19T08:46:04;35.25;;;18.75;;
54372;SDS011;40271;48.798;10.178;2022-08-19T08:48:34;36.60;;;18.23;;
54372;SDS011;40271;48.798;10.178;2022-08-19T08:51:02;35.47;;;17.33;;
54372;SDS011;40271;48.798;10.178;2022-08-19T08:53:29;34.17;;;18.42;;
54372;SDS011;40271;48.798;10.178;2022-08-19T08:55:56;33.75;;;18.60;;
54372;SDS011;40271;48.798;10.178;2022-08-19T08:58:31;34.05;;;18.00;;
54372;SDS011;40271;48.798;10.178;2022-08-19T09:00:58;36.58;;;18.30;;
54372;SDS011;40271;48.798;10.178;2022-08-19T09:03:25;35.15;;;17.55;;
54372;SDS011;40271;48.798;10.178;2022-08-19T09:08:22;37.40;;;18.40;;
54372;SDS011;40271;48.798;10.178;2022-08-19T09:10:54;33.60;;;18.35;;
54372;SDS011;40271;48.798;10.178;2022-08-19T09:13:25;35.78;;;18.27;;
54372;SDS011;40271;48.798;10.178;2022-08-19T09:15:55;35.13;;;18.45;;
54372;SDS011;40271;48.798;10.178;2022-08-19T09:18:23;35.55;;;18.30;;
54372;SDS011;40271;48.798;10.178;2022-08-19T09:20:49;33.67;;;17.92;;
54372;SDS011;40271;48.798;10.178;2022-08-19T09:23:15;34.75;;;18.27;;
54372;SDS011;40271;48.798;10.178;2022-08-19T09:25:41;34.85;;;17.30;;
54372;SDS011;40271;48.798;10.178;2022-08-19T09:28:07;35.00;;;18.77;;
54372;SDS011;40271;48.798;10.178;2022-08-19T09:30:36;32.50;;;17.00;;
54372;SDS011;40271;48.798;10.178;2022-08-19T09:33:04;35.95;;;17.88;;
54372;SDS011;40271;48.798;10.178;2022-08-19T09:35:31;36.13;;;18.25;;
54372;SDS011;40271;48.798;10.178;2022-08-19T09:37:58;34.97;;;18.08;;
54372;SDS011;40271;48.798;10.178;2022-08-19T09:40:24;34.17;;;18.10;;
54372;SDS011;40271;48.798;10.178;2022-08-19T09:42:51;32.95;;;17.73;;
54372;SDS011;40271;48.798;10.178;2022-08-19T09:45:19;35.28;;;17.98;;
54372;SDS011;40271;48.798;10.178;2022-08-19T09:47:46;33.70;;;18.70;;
54372;SDS011;40271;48.798;10.178;2022-08-19T09:50:12;34.90;;;18.02;;
54372;SDS011;40271;48.798;10.178;2022-08-19T09:52:39;34.08;;;17.45;;
54372;SDS011;40271;48.798;10.178;2022-08-19T09:55:07;32.30;;;17.60;;
54372;SDS011;40271;48.798;10.178;2022-08-19T09:57:34;33.50;;;16.98;;
54372;SDS011;40271;48.798;10.178;2022-08-19T10:00:00;32.78;;;16.30;;
54372;SDS011;40271;48.798;10.178;2022-08-19T10:02:26;31.55;;;16.40;;
54372;SDS011;40271;48.798;10.178;2022-08-19T10:04:52;32.55;;;17.27;;
54372;SDS011;40271;48.798;10.178;2022-08-19T10:07:37;31.20;;;16.40;;
54372;SDS011;40271;48.798;10.178;2022-08-19T10:10:04;32.10;;;17.20;;
54372;SDS011;40271;48.798;10.178;2022-08-19T10:12:31;32.70;;;17.65;;
54372;SDS011;40271;48.798;10.178;2022-08-19T10:14:58;30.23;;;16.33;;
54372;SDS011;40271;48.798;10.178;2022-08-19T10:17:24;32.67;;;17.67;;
54372;SDS011;40271;48.798;10.178;2022-08-19T10:19:50;32.20;;;16.77;;
54372;SDS011;40271;48.798;10.178;2022-08-19T10:22:17;31.38;;;17.13;;
54372;SDS011;40271;48.798;10.178;2022-08-19T10:24:43;32.22;;;16.83;;
54372;SDS011;40271;48.798;10.178;2022-08-19T10:27:09;35.58;;;18.40;;
54372;SDS011;40271;48.798;10.178;2022-08-19T10:29:35;32.13;;;17.17;;
54372;SDS011;40271;48.798;10.178;2022-08-19T10:32:01;29.65;;;16.80;;
54372;SDS011;40271;48.798;10.178;2022-08-19T10:34:29;29.38;;;16.30;;
54372;SDS011;40271;48.798;10.178;2022-08-19T10:36:56;36.00;;;18.15;;
54372;SDS011;40271;48.798;10.178;2022-08-19T10:39:23;33.58;;;16.77;;
54372;SDS011;40271;48.798;10.178;2022-08-19T10:41:49;30.55;;;16.38;;
54372;SDS011;40271;48.798;10.178;2022-08-19T10:44:15;29.80;;;16.40;;
54372;SDS011;40271;48.798;10.178;2022-08-19T10:46:43;31.35;;;16.67;;
54372;SDS011;40271;48.798;10.178;2022-08-19T10:49:11;29.10;;;16.20;;
54372;SDS011;40271;48.798;10.178;2022-08-19T10:51:39;30.13;;;16.50;;
54372;SDS011;40271;48.798;10.178;2022-08-19T10:54:24;34.35;;;18.17;;
54372;SDS011;40271;48.798;10.178;2022-08-19T10:57:10;33.05;;;16.13;;
54372;SDS011;40271;48.798;10.178;2022-08-19T10:59:36;31.00;;;16.13;;
54372;SDS011;40271;48.798;10.178;2022-08-19T11:02:04;33.05;;;17.50;;
54372;SDS011;40271;48.798;10.178;2022-08-19T11:04:30;34.40;;;17.17;;
54372;SDS011;40271;48.798;10.178;2022-08-19T11:06:57;32.72;;;16.35;;
54372;SDS011;40271;48.798;10.178;2022-08-19T11:09:24;34.17;;;17.10;;
54372;SDS011;40271;48.798;10.178;2022-08-19T11:11:54;31.58;;;17.23;;
54372;SDS011;40271;48.798;10.178;2022-08-19T11:14:22;31.50;;;16.15;;
54372;SDS011;40271;48.798;10.178;2022-08-19T11:16:50;33.00;;;16.52;;
54372;SDS011;40271;48.798;10.178;2022-08-19T11:19:17;31.95;;;17.08;;
54372;SDS011;40271;48.798;10.178;2022-08-19T11:21:45;29.45;;;15.80;;
54372;SDS011;40271;48.798;10.178;2022-08-19T11:24:15;28.75;;;16.95;;
54372;SDS011;40271;48.798;10.178;2022-08-19T11:26:42;29.25;;;16.17;;
54372;SDS011;40271;48.798;10.178;2022-08-19T11:29:09;31.77;;;15.60;;
54372;SDS011;40271;48.798;10.178;2022-08-19T11:31:38;29.05;;;15.98;;
54372;SDS011;40271;48.798;10.178;2022-08-19T11:34:05;29.13;;;16.05;;
54372;SDS011;40271;48.798;10.178;2022-08-19T11:36:32;25.35;;;13.68;;
54372;SDS011;40271;48.798;10.178;2022-08-19T11:38:58;28.85;;;14.43;;
54372;SDS011;40271;48.798;10.178;2022-08-19T11:41:24;22.15;;;12.57;;
54372;SDS011;40271;48.798;10.178;2022-08-19T11:43:50;24.60;;;13.52;;
54372;SDS011;40271;48.798;10.178;2022-08-19T11:46:18;24.67;;;13.38;;
54372;SDS011;40271;48.798;10.178;2022-08-19T11:48:44;25.48;;;13.07;;
54372;SDS011;40271;48.798;10.178;2022-08-19T11:51:12;25.00;;;13.70;;
54372;SDS011;40271;48.798;10.178;2022-08-19T11:53:39;26.13;;;13.50;;
54372;SDS011;40271;48.798;10.178;2022-08-19T11:56:06;30.77;;;16.35;;
54372;SDS011;40271;48.798;10.178;2022-08-19T11:58:32;28.98;;;14.60;;
54372;SDS011;40271;48.798;10.178;2022-08-19T12:00:59;27.90;;;15.35;;
54372;SDS011;40271;48.798;10.178;2022-08-19T12:03:25;30.13;;;15.60;;
54372;SDS011;40271;48.798;10.178;2022-08-19T12:05:52;28.83;;;14.25;;
54372;SDS011;40271;48.798;10.178;2022-08-19T12:08:18;28.00;;;15.10;;
54372;SDS011;40271;48.798;10.178;2022-08-19T12:10:44;26.90;;;14.95;;
54372;SDS011;40271;48.798;10.178;2022-08-19T12:13:11;30.65;;;16.95;;
54372;SDS011;40271;48.798;10.178;2022-08-19T12:15:46;26.13;;;14.50;;
54372;SDS011;40271;48.798;10.178;2022-08-19T12:18:12;31.58;;;15.82;;
54372;SDS011;40271;48.798;10.178;2022-08-19T12:20:41;28.08;;;14.20;;
54372;SDS011;40271;48.798;10.178;2022-08-19T12:23:08;27.95;;;14.25;;
54372;SDS011;40271;48.798;10.178;2022-08-19T12:25:35;27.40;;;14.10;;
54372;SDS011;40271;48.798;10.178;2022-08-19T12:28:01;28.30;;;14.23;;
54372;SDS011;40271;48.798;10.178;2022-08-19T12:30:27;27.25;;;14.02;;
54372;SDS011;40271;48.798;10.178;2022-08-19T12:32:53;26.17;;;13.60;;
54372;SDS011;40271;48.798;10.178;2022-08-19T12:35:19;23.42;;;13.27;;
54372;SDS011;40271;48.798;10.178;2022-08-19T12:37:46;26.38;;;13.18;;
54372;SDS011;40271;48.798;10.178;2022-08-19T12:40:13;24.17;;;12.57;;
54372;SDS011;40271;48.798;10.178;2022-08-19T12:42:40;20.38;;;10.43;;
54372;SDS011;40271;48.798;10.178;2022-08-19T12:45:10;23.00;;;11.63;;
54372;SDS011;40271;48.798;10.178;2022-08-19T12:47:37;19.70;;;10.57;;
54372;SDS011;40271;48.798;10.178;2022-08-19T12:50:03;22.63;;;11.60;;
54372;SDS011;40271;48.798;10.178;2022-08-19T12:52:31;21.73;;;11.70;;
54372;SDS011;40271;48.798;10.178;2022-08-19T12:54:57;28.67;;;13.63;;
54372;SDS011;40271;48.798;10.178;2022-08-19T12:57:24;30.83;;;15.02;;
54372;SDS011;40271;48.798;10.178;2022-08-19T12:59:53;28.67;;;14.55;;
54372;SDS011;40271;48.798;10.178;2022-08-19T13:02:19;30.85;;;14.07;;
54372;SDS011;40271;48.798;10.178;2022-08-19T13:04:47;28.27;;;13.77;;
54372;SDS011;40271;48.798;10.178;2022-08-19T13:07:13;27.80;;;14.57;;
54372;SDS011;40271;48.798;10.178;2022-08-19T13:09:39;30.17;;;16.08;;
54372;SDS011;40271;48.798;10.178;2022-08-19T13:12:07;36.05;;;16.60;;
54372;SDS011;40271;48.798;10.178;2022-08-19T13:14:37;33.05;;;16.08;;
54372;SDS011;40271;48.798;10.178;2022-08-19T13:17:05;26.48;;;14.05;;
54372;SDS011;40271;48.798;10.178;2022-08-19T13:19:32;25.88;;;12.82;;
54372;SDS011;40271;48.798;10.178;2022-08-19T13:21:58;21.95;;;10.63;;
54372;SDS011;40271;48.798;10.178;2022-08-19T13:24:24;20.73;;;10.90;;
54372;SDS011;40271;48.798;10.178;2022-08-19T13:26:50;19.02;;;10.13;;
54372;SDS011;40271;48.798;10.178;2022-08-19T13:29:16;17.95;;;10.23;;
54372;SDS011;40271;48.798;10.178;2022-08-19T13:32:01;16.80;;;9.43;;
54372;SDS011;40271;48.798;10.178;2022-08-19T13:34:46;15.98;;;9.18;;
54372;SDS011;40271;48.798;10.178;2022-08-19T13:37:12;16.38;;;8.98;;
54372;SDS011;40271;48.798;10.178;2022-08-19T13:39:38;14.05;;;9.05;;
54372;SDS011;40271;48.798;10.178;2022-08-19T13:42:04;15.75;;;9.38;;
54372;SDS011;40271;48.798;10.178;2022-08-19T13:44:32;14.60;;;9.23;;
54372;SDS011;40271;48.798;10.178;2022-08-19T13:47:02;16.88;;;9.98;;
54372;SDS011;40271;48.798;10.178;2022-08-19T13:49:31;16.73;;;9.57;;
54372;SDS011;40271;48.798;10.178;2022-08-19T13:51:58;15.30;;;10.23;;
54372;SDS011;40271;48.798;10.178;2022-08-19T13:54:24;15.45;;;9.07;;
54372;SDS011;40271;48.798;10.178;2022-08-19T13:56:50;14.98;;;9.10;;
54372;SDS011;40271;48.798;10.178;2022-08-19T13:59:16;17.13;;;10.07;;
54372;SDS011;40271;48.798;10.178;2022-08-19T14:01:42;17.27;;;10.57;;
54372;SDS011;40271;48.798;10.178;2022-08-19T14:04:08;18.05;;;10.82;;
54372;SDS011;40271;48.798;10.178;2022-08-19T14:06:35;18.23;;;11.00;;
54372;SDS011;40271;48.798;10.178;2022-08-19T14:09:01;19.45;;;11.13;;
54372;SDS011;40271;48.798;10.178;2022-08-19T14:11:27;19.90;;;11.07;;
54372;SDS011;40271;48.798;10.178;2022-08-19T14:13:53;18.40;;;10.88;;
54372;SDS011;40271;48.798;10.178;2022-08-19T14:16:19;21.10;;;10.95;;
54372;SDS011;40271;48.798;10.178;2022-08-19T14:18:46;18.80;;;11.07;;